Cherry Grove, Oregon
Current Conditions -  °F | °C
As of 10:32 PM on Wednesday 28 Jan 2015 (Local Time) from KHIO Reporting Station
Moderate Fog Moderate Fog  
Wind Chill: 45°   Ceiling: 100
Heat Index: 45°   Visibility: 0.25mi
Dew Point: 45°   Wind: 3mph
Humidity: 100%   Direction: 340°NNW
Pressure: 30.31"   Gusts: NA
Location:  45.45°N, 123.24°W
Report Text: KHIO 290632Z AUTO 34003KT 1/4SM R13/2200V4000FT FG VV001 07/07 A3031 RMK AO2 T00720072
Loading
Personal Weather Stations






























Interactive Weather Map New forecast layout! Learn more

10-Day Weather Forecast

Advertisements
Track Severe Weather on mobile